Time;durP1;ratioP1;P1;durP2;ratioP2;P2;SDS_P1;SDS_P2;PMS_P1;PMS_P2;Temp;Humidity;BMP_temperature;BMP_pressure;BME280_temperature;BME280_humidity;BME280_pressure;Samples;Min_cycle;Max_cycle;Signal;HPM_P1;HPM_P2
2022/12/15 00:40:13;;;;;;;21.88;10.20;;;-4.40;99.90;;;;;;5092210;28;20068;-86
2022/12/15 00:42:40;;;;;;;23.58;11.50;;;-4.30;99.90;;;;;;5090714;28;20044;-87
2022/12/15 00:45:07;;;;;;;23.02;11.82;;;-4.20;99.90;;;;;;5077791;28;20059;-86
2022/12/15 00:47:34;;;;;;;22.88;11.02;;;-4.20;99.90;;;;;;5094014;28;20044;-85
2022/12/15 01:20:23;;;;;;;24.80;11.07;;;-4.10;99.90;;;;;;5098061;28;20112;-87
2022/12/15 01:22:52;;;;;;;24.23;11.18;;;-4.10;99.90;;;;;;5093509;28;20434;-86
2022/12/15 01:25:21;;;;;;;23.75;10.50;;;-4.00;99.90;;;;;;5109659;28;20123;-85
2022/12/15 01:27:48;;;;;;;20.75;10.20;;;-3.90;99.90;;;;;;5109998;28;20040;-86
2022/12/15 01:30:18;;;;;;;28.38;10.88;;;-4.00;99.90;;;;;;5093520;28;20075;-86
2022/12/15 01:32:45;;;;;;;20.90;10.65;;;-4.00;99.90;;;;;;5110018;28;20454;-86
2022/12/15 01:35:12;;;;;;;21.13;10.98;;;-4.00;99.90;;;;;;5110008;28;20061;-87
2022/12/15 01:37:39;;;;;;;21.58;9.82;;;-3.90;99.90;;;;;;5126574;28;20036;-86
2022/12/15 01:42:53;;;;;;;23.27;10.20;;;-3.90;99.90;;;;;;5106678;28;20047;-86
2022/12/15 01:45:22;;;;;;;24.17;10.75;;;-3.70;99.90;;;;;;5089518;28;20119;-86
2022/12/15 01:48:01;;;;;;;20.42;11.00;;;-3.80;99.90;;;;;;5101791;28;20473;-85
2022/12/15 01:50:30;;;;;;;20.80;9.98;;;-3.80;99.90;;;;;;5109471;28;20044;-85
2022/12/15 01:52:56;;;;;;;23.02;10.65;;;-3.30;99.90;;;;;;5109888;28;20040;-84
2022/12/15 01:55:27;;;;;;;21.92;10.45;;;-3.80;99.90;;;;;;5076315;28;20093;-85
2022/12/15 01:57:59;;;;;;;24.73;11.05;;;-3.80;99.90;;;;;;5101296;28;20822;-86
2022/12/15 02:00:26;;;;;;;22.88;9.85;;;-3.80;99.90;;;;;;5105884;28;20102;-87
2022/12/15 02:02:55;;;;;;;23.15;10.52;;;-3.80;99.90;;;;;;5086618;28;20145;-86
2022/12/15 02:05:22;;;;;;;22.65;10.93;;;-3.80;99.90;;;;;;5092922;28;20048;-86
2022/12/15 02:07:49;;;;;;;22.58;10.30;;;-3.80;99.90;;;;;;5104177;28;20094;-87
2022/12/15 02:10:16;;;;;;;20.08;10.52;;;-3.80;99.90;;;;;;5072452;28;20071;-87
2022/12/15 02:12:52;;;;;;;20.45;10.55;;;-3.80;99.90;;;;;;5089435;28;20480;-87
2022/12/15 02:15:40;;;;;;;18.67;10.02;;;-3.80;99.90;;;;;;5088916;28;20052;-86
2022/12/15 02:18:34;;;;;;;21.88;10.70;;;-3.80;99.90;;;;;;5089208;28;20044;-87
2022/12/15 02:21:03;;;;;;;20.77;10.48;;;-3.80;99.90;;;;;;5089522;28;20033;-87
2022/12/15 02:23:57;;;;;;;24.65;10.48;;;-3.50;99.90;;;;;;5092843;28;20036;-86
2022/12/15 02:26:38;;;;;;;19.38;10.00;;;-3.90;99.90;;;;;;5125970;28;20040;-85
2022/12/15 02:29:12;;;;;;;19.92;10.57;;;-3.90;99.90;;;;;;5126031;28;20044;-87
2022/12/15 02:31:48;;;;;;;20.55;9.63;;;-3.90;99.90;;;;;;5109625;28;20098;-86
2022/12/15 02:34:17;;;;;;;20.80;9.73;;;-3.90;99.90;;;;;;5108967;28;20051;-87
2022/12/15 02:36:50;;;;;;;16.55;9.20;;;-3.90;99.90;;;;;;5109547;28;20079;-86
2022/12/15 02:39:17;;;;;;;19.55;9.82;;;-3.90;99.90;;;;;;5102620;28;20079;-86
2022/12/15 02:41:46;;;;;;;17.08;9.10;;;-3.90;99.90;;;;;;5072815;28;20044;-86
2022/12/15 02:44:16;;;;;;;19.10;9.70;;;-2.80;99.90;;;;;;5088981;28;20083;-86
2022/12/15 02:46:48;;;;;;;22.50;9.65;;;-4.00;99.90;;;;;;5089406;28;20105;-87
2022/12/15 02:49:23;;;;;;;18.67;9.85;;;-4.00;99.90;;;;;;5124351;28;20044;-86
2022/12/15 02:52:13;;;;;;;20.77;10.32;;;-4.00;99.90;;;;;;5125937;28;20043;-87
2022/12/15 02:55:04;;;;;;;21.23;10.38;;;-3.90;99.90;;;;;;5109189;28;20507;-87
2022/12/15 02:57:44;;;;;;;18.38;9.20;;;-4.00;99.90;;;;;;5125450;28;20070;-86
2022/12/15 03:00:13;;;;;;;18.15;9.77;;;-3.90;99.90;;;;;;5109084;28;20048;-87
2022/12/15 03:02:46;;;;;;;21.45;9.35;;;-4.00;99.90;;;;;;5094537;28;20452;-86
2022/12/15 03:05:13;;;;;;;17.95;8.93;;;-4.00;99.90;;;;;;5112934;28;20078;-87
2022/12/15 03:07:41;;;;;;;22.02;9.65;;;-4.00;99.90;;;;;;5129455;28;20036;-87
2022/12/15 03:10:11;;;;;;;20.75;10.00;;;-4.00;99.90;;;;;;5093580;28;20120;-87
2022/12/15 03:12:37;;;;;;;20.73;9.18;;;-3.90;99.90;;;;;;5108652;28;20075;-87
2022/12/15 03:15:05;;;;;;;20.48;10.15;;;-3.90;99.90;;;;;;5088382;28;20087;-87
2022/12/15 03:17:31;;;;;;;21.00;10.48;;;-3.90;99.90;;;;;;5069598;28;20173;-87
2022/12/15 03:19:58;;;;;;;19.25;9.68;;;-3.90;99.90;;;;;;5092833;28;20507;-87
2022/12/15 03:22:25;;;;;;;20.75;9.85;;;-3.90;99.90;;;;;;5124564;28;20058;-87
2022/12/15 03:24:51;;;;;;;20.77;9.82;;;-3.00;99.90;;;;;;5115657;28;20036;-87
2022/12/15 03:27:18;;;;;;;21.33;10.85;;;-3.90;99.90;;;;;;5078507;28;20169;-86
2022/12/15 03:29:45;;;;;;;20.95;10.43;;;-3.90;99.90;;;;;;5095340;28;20040;-87
2022/12/15 03:32:11;;;;;;;19.88;10.05;;;-3.40;99.90;;;;;;5111982;28;20802;-87
2022/12/15 03:34:38;;;;;;;27.08;10.43;;;-3.90;99.90;;;;;;5095094;28;20047;-86
2022/12/15 03:37:05;;;;;;;21.95;10.43;;;-3.90;99.90;;;;;;5112219;28;20079;-86
2022/12/15 03:39:31;;;;;;;20.85;9.85;;;-3.90;99.90;;;;;;5111311;28;20063;-87
2022/12/15 03:41:58;;;;;;;20.88;10.00;;;-3.90;99.90;;;;;;5078851;28;20032;-87
2022/12/15 03:44:25;;;;;;;20.30;9.65;;;-3.90;99.90;;;;;;5078586;28;20036;-87
2022/12/15 03:46:52;;;;;;;18.58;9.80;;;-3.90;99.90;;;;;;5095600;28;20044;-86
2022/12/15 03:49:18;;;;;;;19.17;9.30;;;-3.80;99.90;;;;;;5095336;28;20075;-86
2022/12/15 03:51:45;;;;;;;18.98;8.68;;;-3.90;99.90;;;;;;5111594;28;20119;-87
2022/12/15 03:54:12;;;;;;;21.70;9.55;;;-3.90;99.90;;;;;;5095075;28;20130;-87
2022/12/15 03:56:40;;;;;;;18.90;8.93;;;-3.90;99.90;;;;;;5094812;28;20102;-86
2022/12/15 03:59:07;;;;;;;16.15;9.35;;;-3.90;99.90;;;;;;5095114;28;20040;-85
2022/12/15 04:01:35;;;;;;;18.80;9.65;;;-3.90;99.90;;;;;;5074680;28;20037;-87
2022/12/15 04:04:05;;;;;;;19.25;9.00;;;-3.90;99.90;;;;;;5108099;28;20044;-87
2022/12/15 04:06:32;;;;;;;15.80;9.02;;;-3.90;99.90;;;;;;5091568;28;20049;-87
2022/12/15 04:08:58;;;;;;;18.23;8.90;;;-3.90;99.90;;;;;;5058376;28;20051;-86
2022/12/15 04:11:25;;;;;;;17.98;8.73;;;-2.90;99.90;;;;;;5090874;28;20044;-86
2022/12/15 04:13:52;;;;;;;15.50;8.45;;;-3.90;99.90;;;;;;5094408;28;20052;-87
2022/12/15 04:16:18;;;;;;;16.98;8.48;;;-3.90;99.90;;;;;;5094493;28;20071;-87
2022/12/15 04:18:45;;;;;;;22.35;9.18;;;-3.90;99.90;;;;;;5110714;28;20040;-86
2022/12/15 04:21:12;;;;;;;19.08;8.35;;;-3.90;99.90;;;;;;5074677;28;20040;-87
2022/12/15 05:32:25;;;;;;;18.83;8.80;;;-3.90;99.90;;;;;;5098364;28;20491;-87
2022/12/15 05:34:51;;;;;;;17.10;8.68;;;-3.90;99.90;;;;;;5109269;28;20139;-87
2022/12/15 05:37:18;;;;;;;15.98;8.38;;;-3.90;99.90;;;;;;5093322;28;20093;-87
2022/12/15 05:39:45;;;;;;;19.17;8.98;;;-3.60;99.90;;;;;;5092639;28;20090;-87
2022/12/15 05:42:11;;;;;;;19.45;8.48;;;-2.80;99.90;;;;;;5093249;28;20040;-86
2022/12/15 05:44:38;;;;;;;16.70;8.63;;;-2.90;99.90;;;;;;5093293;28;20082;-86
2022/12/15 05:47:05;;;;;;;21.73;8.70;;;-2.90;99.90;;;;;;5097632;28;20044;-87
2022/12/15 05:49:32;;;;;;;19.48;9.60;;;-3.70;99.90;;;;;;5073044;28;20044;-87
2022/12/15 05:51:58;;;;;;;16.75;9.50;;;-3.80;99.90;;;;;;5089705;28;20044;-87
2022/12/15 05:54:25;;;;;;;16.77;8.43;;;-2.70;99.90;;;;;;5075682;28;20043;-87
2022/12/15 05:56:52;;;;;;;19.48;8.70;;;-3.80;99.90;;;;;;5076506;28;20050;-87
2022/12/15 05:59:19;;;;;;;15.82;8.50;;;-3.80;99.90;;;;;;5093891;28;20040;-86
2022/12/15 06:01:46;;;;;;;13.95;8.02;;;-3.90;99.90;;;;;;5092898;28;20101;-87
2022/12/15 06:04:13;;;;;;;18.13;8.48;;;-3.90;99.90;;;;;;5109572;28;20128;-86
2022/12/15 06:06:40;;;;;;;16.15;7.78;;;-3.90;99.90;;;;;;5092613;28;20431;-86
2022/12/15 06:09:07;;;;;;;19.05;8.27;;;-3.90;99.90;;;;;;5126317;28;20460;-86
2022/12/15 06:11:34;;;;;;;14.82;7.28;;;-3.90;99.90;;;;;;5109286;28;20150;-87
2022/12/15 06:14:00;;;;;;;12.93;7.07;;;-4.00;99.90;;;;;;5092784;28;20040;-87
2022/12/15 06:16:27;;;;;;;15.38;7.07;;;-4.00;99.90;;;;;;5075960;28;20131;-86
2022/12/15 06:18:57;;;;;;;18.00;7.30;;;-4.00;99.90;;;;;;5109179;28;20475;-87
2022/12/15 06:21:30;;;;;;;14.70;7.13;;;-4.10;99.90;;;;;;5109928;28;20036;-86
2022/12/15 06:23:57;;;;;;;14.68;7.20;;;-4.10;99.90;;;;;;5109550;28;20046;-85
2022/12/15 06:26:44;;;;;;;14.93;7.20;;;-4.10;99.90;;;;;;5102811;28;20044;-86
2022/12/15 06:29:12;;;;;;;16.58;7.25;;;-3.10;99.90;;;;;;5072349;28;20098;-87
2022/12/15 06:31:40;;;;;;;14.10;6.88;;;-4.10;99.90;;;;;;5089476;28;20127;-87
2022/12/15 06:34:10;;;;;;;16.83;6.90;;;-4.10;99.90;;;;;;5072016;28;20109;-86
2022/12/15 06:36:37;;;;;;;19.85;7.28;;;-4.10;99.90;;;;;;5081771;28;20051;-87
2022/12/15 06:39:07;;;;;;;14.60;6.65;;;-3.20;99.90;;;;;;5114329;28;20566;-87
2022/12/15 06:41:34;;;;;;;13.10;6.82;;;-4.20;99.90;;;;;;5130051;28;20044;-86
2022/12/15 06:44:01;;;;;;;17.02;6.78;;;-4.20;99.90;;;;;;5096196;28;20074;-88
2022/12/15 06:46:30;;;;;;;13.27;6.45;;;-4.10;99.90;;;;;;5096440;28;20032;-86
2022/12/15 06:48:57;;;;;;;16.13;6.47;;;-4.10;99.90;;;;;;5112521;28;20036;-87
2022/12/15 06:51:25;;;;;;;12.65;6.18;;;-2.80;99.90;;;;;;5102886;28;20038;-86
2022/12/15 06:53:55;;;;;;;12.15;6.32;;;-4.00;99.90;;;;;;5092539;28;20048;-87
2022/12/15 06:56:24;;;;;;;12.93;6.50;;;-3.90;99.90;;;;;;5093135;28;20049;-87
2022/12/15 06:58:52;;;;;;;17.45;8.30;;;-3.80;99.90;;;;;;5109295;28;20062;-86
2022/12/15 07:01:21;;;;;;;15.68;7.70;;;-3.80;99.90;;;;;;5096524;28;20047;-86
2022/12/15 07:03:48;;;;;;;17.08;7.75;;;-3.80;99.90;;;;;;5112639;28;20825;-86
2022/12/15 07:06:15;;;;;;;17.65;7.32;;;-3.70;99.90;;;;;;5112740;28;20123;-87
2022/12/15 07:08:43;;;;;;;15.15;6.63;;;-3.70;99.90;;;;;;5103644;28;20047;-87
2022/12/15 07:11:12;;;;;;;15.68;6.45;;;-3.70;99.90;;;;;;5119508;28;20526;-87
2022/12/15 07:13:39;;;;;;;15.43;7.05;;;-3.70;99.90;;;;;;5111515;28;20487;-87
2022/12/15 07:16:07;;;;;;;14.68;6.20;;;-3.70;99.90;;;;;;5082092;28;20036;-87
2022/12/15 07:18:33;;;;;;;15.38;6.50;;;-3.60;99.90;;;;;;5105423;28;20389;-86
2022/12/15 07:21:05;;;;;;;13.18;6.18;;;-2.50;99.90;;;;;;5104486;28;20043;-88
2022/12/15 07:23:33;;;;;;;13.98;6.80;;;-3.70;99.90;;;;;;5138196;28;20075;-87
2022/12/15 07:26:04;;;;;;;15.13;6.97;;;-3.70;99.90;;;;;;5148579;28;20551;-87
2022/12/15 07:28:30;;;;;;;16.02;7.00;;;-3.70;99.90;;;;;;5132585;28;20457;-85
2022/12/15 07:31:06;;;;;;;14.13;6.43;;;-3.60;99.90;;;;;;5098452;28;20044;-87
2022/12/15 07:33:34;;;;;;;12.13;5.93;;;-3.60;99.90;;;;;;5129093;28;20040;-87
2022/12/15 07:36:01;;;;;;;13.40;6.05;;;-3.60;99.90;;;;;;5114669;28;20042;-87
2022/12/15 07:38:28;;;;;;;14.73;6.25;;;-3.60;99.90;;;;;;5114640;28;21409;-87
2022/12/15 07:40:59;;;;;;;13.13;6.28;;;-3.50;99.90;;;;;;5118259;28;20507;-87
2022/12/15 07:43:27;;;;;;;16.08;6.55;;;-3.50;99.90;;;;;;5130026;28;20047;-87
2022/12/15 07:45:54;;;;;;;20.45;5.70;;;-3.50;99.90;;;;;;5111738;28;20043;-86
2022/12/15 07:48:20;;;;;;;14.95;6.13;;;-3.50;99.90;;;;;;5074987;28;20469;-87
2022/12/15 07:50:47;;;;;;;17.52;5.93;;;-3.50;99.90;;;;;;5096671;28;20035;-88
2022/12/15 07:53:14;;;;;;;15.05;6.65;;;-3.50;99.90;;;;;;5097853;28;20510;-87
2022/12/15 07:55:40;;;;;;;14.40;6.70;;;-3.40;99.90;;;;;;5095862;28;20048;-87
2022/12/15 07:58:07;;;;;;;15.10;7.45;;;-3.40;99.90;;;;;;5095291;28;20036;-87
2022/12/15 08:00:34;;;;;;;12.45;6.47;;;-3.50;99.90;;;;;;5094122;28;20040;-87
2022/12/15 08:03:01;;;;;;;14.30;6.10;;;-2.80;99.90;;;;;;5097839;28;20119;-87
2022/12/15 08:05:28;;;;;;;15.18;6.57;;;-2.90;99.90;;;;;;5095388;28;20032;-87
2022/12/15 08:07:57;;;;;;;14.30;7.07;;;-3.30;99.90;;;;;;5091992;28;20392;-87
2022/12/15 08:10:23;;;;;;;13.48;6.70;;;-3.30;99.90;;;;;;5075131;28;20480;-87
2022/12/15 08:12:51;;;;;;;16.85;7.75;;;-2.90;99.90;;;;;;5074443;28;20097;-87
2022/12/15 08:15:18;;;;;;;15.98;6.95;;;-3.30;99.90;;;;;;5075590;28;20551;-87
2022/12/15 08:17:45;;;;;;;16.65;7.18;;;-3.30;99.90;;;;;;5115783;28;20069;-88
2022/12/15 08:20:13;;;;;;;15.00;6.95;;;-3.20;99.90;;;;;;5095686;28;20088;-87
2022/12/15 08:22:40;;;;;;;12.63;6.82;;;-3.20;99.90;;;;;;5115580;28;20044;-88
2022/12/15 08:25:07;;;;;;;16.85;7.63;;;-3.20;99.90;;;;;;5105587;28;20514;-86
2022/12/15 08:27:34;;;;;;;15.35;7.55;;;-3.20;99.90;;;;;;5089239;28;20028;-87
2022/12/15 08:30:01;;;;;;;15.98;7.80;;;-3.10;99.90;;;;;;5090129;28;20407;-85
2022/12/15 08:32:28;;;;;;;15.32;7.07;;;-2.80;99.90;;;;;;5079765;28;20382;-87
2022/12/15 08:34:54;;;;;;;17.90;6.53;;;-3.10;99.90;;;;;;5078997;28;20098;-86
2022/12/15 08:37:21;;;;;;;13.18;6.65;;;-3.10;99.90;;;;;;5117400;28;20230;-87
2022/12/15 08:39:48;;;;;;;14.82;6.90;;;-3.10;99.90;;;;;;5077901;28;20055;-86
2022/12/15 08:42:15;;;;;;;15.05;6.60;;;-3.00;99.90;;;;;;5118182;28;20051;-87
2022/12/15 08:44:41;;;;;;;16.15;6.78;;;-3.10;99.90;;;;;;5114045;28;20040;-86
2022/12/15 08:47:08;;;;;;;14.15;6.80;;;-3.10;99.90;;;;;;5097800;28;20483;-87
2022/12/15 08:49:34;;;;;;;13.77;6.95;;;-3.00;99.90;;;;;;5098202;28;20041;-87
2022/12/15 08:52:01;;;;;;;17.60;7.15;;;-2.90;99.90;;;;;;5120664;28;20040;-87
2022/12/15 08:54:28;;;;;;;12.95;6.80;;;-3.00;99.90;;;;;;5085343;28;20076;-87
2022/12/15 08:56:54;;;;;;;15.90;7.13;;;-3.00;99.90;;;;;;5114535;28;20506;-87
2022/12/15 08:59:21;;;;;;;14.25;6.63;;;-2.90;99.90;;;;;;5083032;28;20043;-82
2022/12/15 09:01:48;;;;;;;13.20;7.05;;;-1.90;99.90;;;;;;5092665;28;20096;-83
2022/12/15 09:04:15;;;;;;;12.02;6.60;;;-2.90;99.90;;;;;;5087431;28;20038;-83
2022/12/15 09:06:42;;;;;;;17.90;7.22;;;-2.80;99.90;;;;;;5114880;28;20040;-83
2022/12/15 09:09:11;;;;;;;15.55;6.22;;;-2.80;99.90;;;;;;5109021;28;20181;-84
2022/12/15 09:11:38;;;;;;;12.20;6.40;;;-2.70;99.90;;;;;;5088191;28;20043;-85
2022/12/15 09:14:05;;;;;;;15.55;7.53;;;-2.60;99.90;;;;;;5099452;28;20115;-86
2022/12/15 09:16:32;;;;;;;18.42;7.45;;;-2.60;99.90;;;;;;5110221;28;20044;-87
2022/12/15 09:18:59;;;;;;;17.77;8.02;;;-2.50;99.90;;;;;;5093555;28;20043;-87
2022/12/15 09:21:28;;;;;;;20.35;8.43;;;-2.40;99.90;;;;;;5109271;28;20070;-86
2022/12/15 09:24:00;;;;;;;21.42;8.77;;;-2.40;99.90;;;;;;5109964;28;20035;-86
2022/12/15 09:26:29;;;;;;;22.15;8.60;;;-2.40;99.90;;;;;;5109727;28;20047;-86
2022/12/15 09:28:56;;;;;;;21.65;9.00;;;-2.30;99.90;;;;;;5127172;28;20046;-87
2022/12/15 09:31:29;;;;;;;19.58;8.80;;;-2.30;99.90;;;;;;5076392;28;20104;-87
2022/12/15 09:33:58;;;;;;;16.92;8.20;;;-2.30;99.90;;;;;;5103424;28;20043;-86
2022/12/15 09:36:26;;;;;;;16.52;8.25;;;-2.30;99.90;;;;;;5092687;28;20058;-88
2022/12/15 09:38:52;;;;;;;14.93;7.72;;;-2.20;99.90;;;;;;5108499;28;20055;-86
2022/12/15 09:41:29;;;;;;;16.55;8.45;;;-2.20;99.90;;;;;;5076245;28;20039;-86
2022/12/15 09:44:02;;;;;;;15.10;7.90;;;-2.20;99.90;;;;;;5121238;28;20074;-85
2022/12/15 09:46:58;;;;;;;20.30;9.13;;;-2.10;99.90;;;;;;5115586;28;20032;-87
2022/12/15 09:49:44;;;;;;;22.70;7.63;;;-1.30;99.90;;;;;;5116734;28;20036;-87
2022/12/15 09:52:13;;;;;;;21.27;7.93;;;-1.50;99.90;;;;;;5129610;28;20142;-87
2022/12/15 09:54:42;;;;;;;18.98;8.30;;;-2.00;99.90;;;;;;5094855;28;20119;-85
2022/12/15 09:57:27;;;;;;;19.77;8.30;;;-2.00;99.90;;;;;;5107845;28;20054;-85
2022/12/15 10:00:04;;;;;;;25.98;7.93;;;-1.90;99.90;;;;;;5109066;28;20044;-86
2022/12/15 10:02:52;;;;;;;16.42;7.57;;;-1.80;99.90;;;;;;5108467;28;20119;-87
2022/12/15 10:05:37;;;;;;;20.40;9.20;;;-1.70;99.90;;;;;;5108735;28;20097;-86
2022/12/15 10:08:03;;;;;;;17.75;7.22;;;-1.70;99.90;;;;;;5112960;28;20038;-86
2022/12/15 10:10:53;;;;;;;19.25;8.52;;;-1.60;99.90;;;;;;5087767;28;20119;-85
2022/12/15 10:13:32;;;;;;;15.65;7.82;;;-1.50;99.90;;;;;;5123301;28;20408;-86
2022/12/15 10:16:04;;;;;;;15.75;7.97;;;-0.90;99.90;;;;;;5125097;28;20119;-87
2022/12/15 10:18:38;;;;;;;16.33;7.50;;;-1.40;99.90;;;;;;5105610;28;20044;-87
2022/12/15 10:21:12;;;;;;;13.73;7.53;;;-1.40;99.90;;;;;;5130691;28;20084;-86
2022/12/15 10:23:39;;;;;;;14.88;6.82;;;-1.30;99.90;;;;;;5101904;28;20039;-86
2022/12/15 10:26:22;;;;;;;16.27;7.32;;;-1.20;99.90;;;;;;5114923;28;20040;-85
2022/12/15 10:29:14;;;;;;;17.60;7.57;;;-1.20;99.90;;;;;;5129660;28;20051;-86
2022/12/15 10:31:54;;;;;;;18.17;7.40;;;-1.20;99.90;;;;;;5108199;28;20066;-86
2022/12/15 10:34:28;;;;;;;15.93;6.75;;;-1.10;99.90;;;;;;5112414;28;20089;-86
2022/12/15 10:36:58;;;;;;;15.00;7.35;;;-1.10;99.90;;;;;;5110561;28;20445;-86
2022/12/15 10:39:39;;;;;;;14.02;7.53;;;-0.10;99.90;;;;;;5112926;28;20518;-87
2022/12/15 10:42:13;;;;;;;16.95;7.40;;;-1.00;99.90;;;;;;5122214;28;20040;-87
2022/12/15 10:44:43;;;;;;;16.60;7.63;;;-1.00;99.90;;;;;;5113380;28;20036;-87
2022/12/15 10:47:44;;;;;;;14.52;7.00;;;-0.60;99.90;;;;;;5111792;28;20036;-87
2022/12/15 10:50:22;;;;;;;12.05;6.70;;;-0.80;99.90;;;;;;5082552;28;20102;-88
2022/12/15 10:52:49;;;;;;;12.75;6.85;;;-0.80;99.90;;;;;;5113195;28;20514;-86
2022/12/15 10:55:34;;;;;;;16.92;7.57;;;-0.70;99.90;;;;;;5097051;28;20033;-87
2022/12/15 10:58:12;;;;;;;13.73;6.57;;;-0.70;99.90;;;;;;5133050;28;20051;-86
2022/12/15 11:00:39;;;;;;;14.77;7.88;;;-0.60;99.90;;;;;;5133217;28;20035;-85
2022/12/15 11:03:23;;;;;;;15.52;8.13;;;-0.60;99.90;;;;;;5098869;28;20035;-85
2022/12/15 11:05:55;;;;;;;12.65;7.63;;;0.60;99.90;;;;;;5132655;28;20032;-84
2022/12/15 11:08:27;;;;;;;13.25;7.15;;;-0.50;99.90;;;;;;5128611;28;20055;-87
2022/12/15 11:14:02;;;;;;;17.35;8.90;;;-0.40;99.90;;;;;;5128085;28;20043;-87
2022/12/15 11:16:30;;;;;;;16.42;7.35;;;-0.40;99.90;;;;;;5081169;28;20074;-85
2022/12/15 11:19:06;;;;;;;15.35;7.25;;;-0.30;99.90;;;;;;5091668;28;20094;-87
2022/12/15 11:21:47;;;;;;;15.38;7.60;;;-0.30;99.90;;;;;;5119519;28;20039;-85
2022/12/15 11:24:24;;;;;;;13.45;7.72;;;-0.20;99.90;;;;;;5110548;28;20036;-82
2022/12/15 11:27:00;;;;;;;14.30;7.10;;;-0.20;99.90;;;;;;5101186;28;20125;-86
2022/12/15 11:30:05;;;;;;;22.15;8.93;;;-0.10;99.90;;;;;;5124365;28;20039;-85
2022/12/15 11:32:36;;;;;;;24.35;10.35;;;-0.10;99.90;;;;;;5110228;28;20080;-86
2022/12/15 11:35:04;;;;;;;21.90;9.80;;;0.00;99.90;;;;;;5122102;28;20044;-86
2022/12/15 11:37:41;;;;;;;23.98;13.18;;;0.00;99.90;;;;;;5099801;28;20036;-87
2022/12/15 11:40:30;;;;;;;18.23;8.82;;;0.20;99.90;;;;;;5099664;28;20036;-87
2022/12/15 11:43:09;;;;;;;31.13;17.10;;;0.00;99.90;;;;;;5117305;28;20073;-86
2022/12/15 11:46:17;;;;;;;23.50;12.98;;;0.00;99.90;;;;;;5118060;28;20140;-86
2022/12/15 11:48:53;;;;;;;;;;;0.10;99.90;;;;;;5120155;28;20048;-86
2022/12/15 11:51:28;;;;;;;14.05;7.57;;;0.10;99.90;;;;;;5136652;28;19945;-85
2022/12/15 11:54:27;;;;;;;17.05;8.48;;;0.20;99.90;;;;;;5132011;28;20407;-86
2022/12/15 11:57:21;;;;;;;21.90;9.18;;;0.20;99.90;;;;;;5140568;28;20039;-86
2022/12/15 11:59:54;;;;;;;23.05;12.75;;;0.20;99.90;;;;;;5126592;28;20039;-84
2022/12/15 12:02:41;;;;;;;47.25;22.88;;;0.20;99.90;;;;;;5113598;28;20450;-86
2022/12/15 12:05:32;;;;;;;20.35;11.73;;;0.20;99.90;;;;;;5130231;28;20411;-86
2022/12/15 12:08:06;;;;;;;12.60;7.78;;;0.20;99.90;;;;;;5116330;28;20039;-86
2022/12/15 12:10:51;;;;;;;15.63;7.75;;;0.20;99.90;;;;;;5125602;28;20043;-86
2022/12/15 12:13:49;;;;;;;16.63;8.15;;;0.20;99.90;;;;;;5144940;28;20571;-81
2022/12/15 12:16:40;;;;;;;15.02;9.48;;;0.30;99.90;;;;;;5090755;28;20409;-86
2022/12/15 12:19:23;;;;;;;20.15;9.93;;;0.20;99.90;;;;;;5090102;28;20079;-86
2022/12/15 12:21:58;;;;;;;21.45;11.13;;;0.40;99.90;;;;;;5090594;28;20044;-86
2022/12/15 12:24:36;;;;;;;20.60;9.82;;;0.20;99.90;;;;;;5122762;28;20785;-86
2022/12/15 12:27:26;;;;;;;15.25;8.27;;;0.30;99.90;;;;;;5122756;28;20047;-86
2022/12/15 12:30:01;;;;;;;16.77;8.50;;;0.30;99.90;;;;;;5111259;28;20036;-86
2022/12/15 12:32:33;;;;;;;15.02;7.20;;;0.90;99.90;;;;;;5118833;28;20484;-85
2022/12/15 12:35:29;;;;;;;11.45;6.85;;;0.90;99.90;;;;;;5106047;28;20457;-86
2022/12/15 12:38:04;;;;;;;15.82;7.60;;;0.30;99.90;;;;;;5130056;28;20043;-86
2022/12/15 12:41:03;;;;;;;23.23;9.30;;;0.70;99.90;;;;;;5093329;28;20059;-86
2022/12/15 12:43:30;;;;;;;12.65;6.75;;;0.40;99.90;;;;;;5089860;28;20511;-86
2022/12/15 12:46:15;;;;;;;13.18;6.45;;;0.40;99.90;;;;;;5106331;28;20044;-82
2022/12/15 12:49:00;;;;;;;13.45;7.05;;;0.40;99.90;;;;;;5108251;28;20129;-86
2022/12/15 12:51:36;;;;;;;15.70;6.57;;;0.50;99.90;;;;;;5109751;28;20036;-84
2022/12/15 12:54:22;;;;;;;;;;;0.40;99.90;;;;;;5110455;28;20039;-85
2022/12/15 12:56:49;;;;;;;15.18;6.90;;;0.50;99.90;;;;;;5127185;28;19945;-84
2022/12/15 12:59:28;;;;;;;16.10;6.45;;;0.50;99.90;;;;;;5110334;28;20044;-86
2022/12/15 13:01:56;;;;;;;15.63;6.70;;;0.50;99.90;;;;;;5109599;28;20077;-85
2022/12/15 13:04:28;;;;;;;12.20;6.63;;;0.90;99.90;;;;;;5110004;28;20454;-85
2022/12/15 13:06:59;;;;;;;14.45;7.00;;;1.10;99.90;;;;;;5106436;28;20087;-86
2022/12/15 13:09:39;;;;;;;14.15;6.07;;;0.60;99.90;;;;;;5106098;28;20046;-86
2022/12/15 13:12:37;;;;;;;14.75;6.47;;;0.60;99.90;;;;;;5110079;28;20043;-86
2022/12/15 13:15:33;;;;;;;12.73;6.32;;;0.60;99.90;;;;;;5113312;28;20539;-86
2022/12/15 13:18:12;;;;;;;13.57;6.60;;;0.60;99.90;;;;;;5093236;28;20044;-86
2022/12/15 13:20:40;;;;;;;16.10;6.93;;;0.60;99.90;;;;;;5136362;28;20039;-85
2022/12/15 13:23:19;;;;;;;13.23;6.82;;;0.70;99.90;;;;;;5093618;28;20028;-86
2022/12/15 13:25:51;;;;;;;11.32;5.88;;;0.60;99.90;;;;;;5114475;28;20382;-85
2022/12/15 13:28:39;;;;;;;11.10;5.82;;;0.60;99.90;;;;;;5114024;28;20491;-85
2022/12/15 13:31:15;;;;;;;14.15;6.43;;;0.60;99.90;;;;;;5112509;28;20040;-85
2022/12/15 13:33:53;;;;;;;11.60;6.47;;;0.60;99.90;;;;;;5129301;28;20119;-85
2022/12/15 13:36:35;;;;;;;11.02;5.57;;;0.60;99.90;;;;;;5115708;28;20035;-86
2022/12/15 13:39:11;;;;;;;12.02;6.57;;;0.70;99.90;;;;;;5108990;28;20127;-86
2022/12/15 13:41:47;;;;;;;;;;;0.70;99.90;;;;;;5089339;28;20040;-86
2022/12/15 13:44:23;;;;;;;12.38;5.53;;;0.70;99.90;;;;;;5111826;28;19926;-86
2022/12/15 13:46:52;;;;;;;11.27;6.25;;;0.70;99.90;;;;;;5148116;28;20042;-86
2022/12/15 13:49:32;;;;;;;15.48;6.80;;;0.60;99.90;;;;;;5123531;28;20051;-85
2022/12/15 13:52:23;;;;;;;15.18;6.80;;;1.30;99.90;;;;;;5111506;28;20039;-85
2022/12/15 13:55:02;;;;;;;17.08;7.25;;;0.60;99.90;;;;;;5096988;28;20075;-86
2022/12/15 13:57:33;;;;;;;22.13;8.63;;;1.10;99.90;;;;;;5124944;28;20071;-86
2022/12/15 14:00:17;;;;;;;19.65;8.52;;;0.60;99.90;;;;;;5124180;28;20445;-86
2022/12/15 14:02:44;;;;;;;15.77;8.70;;;0.50;99.90;;;;;;5109022;28;20435;-85
2022/12/15 14:05:11;;;;;;;17.88;7.93;;;0.60;99.90;;;;;;5078922;28;20027;-82
2022/12/15 14:07:49;;;;;;;16.40;8.25;;;0.50;99.90;;;;;;5146285;28;20043;-86
2022/12/15 14:10:26;;;;;;;16.08;7.38;;;0.50;99.90;;;;;;5114059;28;20050;-86
2022/12/15 14:12:56;;;;;;;20.55;8.20;;;0.50;99.90;;;;;;5123848;28;20047;-87
2022/12/15 14:15:30;;;;;;;15.90;7.75;;;0.50;99.90;;;;;;5108769;28;20133;-86
2022/12/15 14:17:59;;;;;;;15.68;7.43;;;0.40;99.90;;;;;;5109465;28;20127;-86
2022/12/15 14:20:29;;;;;;;15.38;7.30;;;0.40;99.90;;;;;;5126063;28;20059;-86
2022/12/15 14:22:56;;;;;;;19.45;8.57;;;0.30;99.90;;;;;;5109143;28;20040;-87
2022/12/15 14:25:28;;;;;;;21.08;9.32;;;0.30;99.90;;;;;;5109209;28;20032;-86
2022/12/15 14:27:55;;;;;;;15.15;8.50;;;0.20;99.90;;;;;;5109038;28;20449;-79
2022/12/15 14:30:28;;;;;;;18.73;8.68;;;0.20;99.90;;;;;;5090651;28;20058;-86
2022/12/15 14:33:02;;;;;;;15.30;7.90;;;0.20;99.90;;;;;;5123911;28;20565;-87
2022/12/15 14:35:43;;;;;;;15.38;8.98;;;0.10;99.90;;;;;;5116150;28;20036;-81
2022/12/15 14:38:30;;;;;;;15.05;7.35;;;0.10;99.90;;;;;;5093911;28;20043;-86
2022/12/15 14:41:00;;;;;;;17.00;7.30;;;0.10;99.90;;;;;;5095080;28;20052;-86
2022/12/15 14:43:35;;;;;;;18.45;8.27;;;0.00;99.90;;;;;;5100025;28;20074;-83
2022/12/15 14:46:16;;;;;;;19.48;9.25;;;0.00;99.90;;;;;;5111774;28;20027;-85
2022/12/15 14:48:49;;;;;;;19.85;9.27;;;0.00;99.90;;;;;;5145343;28;20114;-85
2022/12/15 14:51:16;;;;;;;15.85;8.07;;;0.20;99.90;;;;;;5115537;28;20039;-84
2022/12/15 14:53:48;;;;;;;19.67;10.35;;;1.10;99.90;;;;;;5124884;28;20071;-85
2022/12/15 14:56:26;;;;;;;18.42;9.50;;;0.00;99.90;;;;;;5108706;28;20079;-85
2022/12/15 14:59:02;;;;;;;20.00;10.20;;;0.00;99.90;;;;;;5127855;28;20119;-85
2022/12/15 15:01:33;;;;;;;15.75;9.13;;;0.10;99.90;;;;;;5128973;28;20715;-85
2022/12/15 15:04:18;;;;;;;18.17;8.98;;;0.10;99.90;;;;;;5112212;28;20381;-85
2022/12/15 15:06:44;;;;;;;17.77;10.00;;;0.10;99.90;;;;;;5112001;28;20076;-85
2022/12/15 15:09:38;;;;;;;22.65;11.50;;;0.10;99.90;;;;;;5094933;28;20079;-85
2022/12/15 15:12:28;;;;;;;22.02;11.35;;;1.10;99.90;;;;;;5098203;28;20518;-85
2022/12/15 15:15:05;;;;;;;19.27;11.90;;;0.10;99.90;;;;;;5090879;28;20041;-85
2022/12/15 15:17:52;;;;;;;22.15;11.18;;;0.10;99.90;;;;;;5099762;28;20046;-80
2022/12/15 15:20:36;;;;;;;17.73;10.30;;;0.00;99.90;;;;;;5111150;28;20446;-84
2022/12/15 15:23:06;;;;;;;26.13;12.38;;;0.00;99.90;;;;;;5128360;28;20063;-84
2022/12/15 15:25:32;;;;;;;17.63;10.75;;;0.00;99.90;;;;;;5111257;28;20075;-82
2022/12/15 15:28:02;;;;;;;22.77;13.05;;;0.00;99.90;;;;;;5111231;28;20097;-85
2022/12/15 15:30:47;;;;;;;21.60;10.85;;;0.00;99.90;;;;;;5110864;28;20040;-84